sensor_id;sensor_type;location;lat;lon;timestamp;P1;P2;P0
56360;PMS7003;42611;51.132;13.588;2023-04-16T00:02:02;28.2;26.2;
56360;PMS7003;42611;51.132;13.588;2023-04-16T00:07:01;27.5;25.7;
56360;PMS7003;42611;51.132;13.588;2023-04-16T00:12:01;30.0;27.1;
56360;PMS7003;42611;51.132;13.588;2023-04-16T00:17:02;30.4;27.3;
56360;PMS7003;42611;51.132;13.588;2023-04-16T00:22:01;32.8;28.8;
56360;PMS7003;42611;51.132;13.588;2023-04-16T00:27:02;35.0;30.8;
56360;PMS7003;42611;51.132;13.588;2023-04-16T00:32:01;35.2;30.9;
56360;PMS7003;42611;51.132;13.588;2023-04-16T00:37:01;33.6;30.3;
56360;PMS7003;42611;51.132;13.588;2023-04-16T00:42:01;33.8;30.4;
56360;PMS7003;42611;51.132;13.588;2023-04-16T00:47:01;33.6;30.4;
56360;PMS7003;42611;51.132;13.588;2023-04-16T00:52:01;32.8;29.8;
56360;PMS7003;42611;51.132;13.588;2023-04-16T00:57:01;34.0;30.7;
56360;PMS7003;42611;51.132;13.588;2023-04-16T01:02:03;35.4;31.7;
56360;PMS7003;42611;51.132;13.588;2023-04-16T01:07:02;36.8;32.7;
56360;PMS7003;42611;51.132;13.588;2023-04-16T01:12:01;38.0;33.6;
56360;PMS7003;42611;51.132;13.588;2023-04-16T01:17:01;39.0;34.5;
56360;PMS7003;42611;51.132;13.588;2023-04-16T01:22:01;40.0;34.7;
56360;PMS7003;42611;51.132;13.588;2023-04-16T01:27:01;41.8;35.8;
56360;PMS7003;42611;51.132;13.588;2023-04-16T01:32:01;42.4;36.0;
56360;PMS7003;42611;51.132;13.588;2023-04-16T01:37:02;44.2;37.2;
56360;PMS7003;42611;51.132;13.588;2023-04-16T01:42:01;47.4;38.6;
56360;PMS7003;42611;51.132;13.588;2023-04-16T01:47:01;47.8;39.1;
56360;PMS7003;42611;51.132;13.588;2023-04-16T01:52:01;46.3;38.1;
56360;PMS7003;42611;51.132;13.588;2023-04-16T01:57:01;44.4;37.1;
56360;PMS7003;42611;51.132;13.588;2023-04-16T02:02:04;42.7;35.9;
56360;PMS7003;42611;51.132;13.588;2023-04-16T02:07:01;41.2;35.5;
56360;PMS7003;42611;51.132;13.588;2023-04-16T02:12:01;40.7;35.4;
56360;PMS7003;42611;51.132;13.588;2023-04-16T02:18:01;40.8;35.4;
56360;PMS7003;42611;51.132;13.588;2023-04-16T02:23:02;41.3;35.6;
56360;PMS7003;42611;51.132;13.588;2023-04-16T02:28:01;40.9;35.0;
56360;PMS7003;42611;51.132;13.588;2023-04-16T02:33:02;38.9;33.5;
56360;PMS7003;42611;51.132;13.588;2023-04-16T02:38:01;41.9;35.3;
56360;PMS7003;42611;51.132;13.588;2023-04-16T02:43:02;44.2;37.0;
56360;PMS7003;42611;51.132;13.588;2023-04-16T02:48:02;45.9;38.0;
56360;PMS7003;42611;51.132;13.588;2023-04-16T02:53:02;46.5;38.6;
56360;PMS7003;42611;51.132;13.588;2023-04-16T02:58:01;48.9;40.1;
56360;PMS7003;42611;51.132;13.588;2023-04-16T03:03:02;46.7;38.4;
56360;PMS7003;42611;51.132;13.588;2023-04-16T03:08:03;44.8;37.1;
56360;PMS7003;42611;51.132;13.588;2023-04-16T03:13:01;43.4;36.4;
56360;PMS7003;42611;51.132;13.588;2023-04-16T03:18:01;42.8;36.0;
56360;PMS7003;42611;51.132;13.588;2023-04-16T03:23:01;40.9;35.0;
56360;PMS7003;42611;51.132;13.588;2023-04-16T03:28:01;39.8;34.5;
56360;PMS7003;42611;51.132;13.588;2023-04-16T03:33:01;38.4;33.8;
56360;PMS7003;42611;51.132;13.588;2023-04-16T03:38:01;38.6;33.6;
56360;PMS7003;42611;51.132;13.588;2023-04-16T03:43:01;37.8;33.4;
56360;PMS7003;42611;51.132;13.588;2023-04-16T03:48:01;37.2;33.2;
56360;PMS7003;42611;51.132;13.588;2023-04-16T03:53:01;37.1;33.1;
56360;PMS7003;42611;51.132;13.588;2023-04-16T03:58:01;36.8;32.0;
56360;PMS7003;42611;51.132;13.588;2023-04-16T04:03:02;35.2;31.4;
56360;PMS7003;42611;51.132;13.588;2023-04-16T04:08:01;35.5;31.3;
56360;PMS7003;42611;51.132;13.588;2023-04-16T04:13:02;35.3;31.0;
56360;PMS7003;42611;51.132;13.588;2023-04-16T04:18:01;35.5;31.5;
56360;PMS7003;42611;51.132;13.588;2023-04-16T04:23:01;34.6;31.8;
56360;PMS7003;42611;51.132;13.588;2023-04-16T04:28:01;34.9;32.1;
56360;PMS7003;42611;51.132;13.588;2023-04-16T04:33:01;33.1;30.9;
56360;PMS7003;42611;51.132;13.588;2023-04-16T04:43:02;31.4;29.3;
56360;PMS7003;42611;51.132;13.588;2023-04-16T04:48:01;31.7;29.2;
56360;PMS7003;42611;51.132;13.588;2023-04-16T04:53:01;32.1;29.2;
56360;PMS7003;42611;51.132;13.588;2023-04-16T04:58:02;32.8;29.6;
56360;PMS7003;42611;51.132;13.588;2023-04-16T05:03:02;31.5;29.0;
56360;PMS7003;42611;51.132;13.588;2023-04-16T05:08:01;32.5;29.3;
56360;PMS7003;42611;51.132;13.588;2023-04-16T05:13:01;33.6;29.9;
56360;PMS7003;42611;51.132;13.588;2023-04-16T05:18:01;33.4;29.9;
56360;PMS7003;42611;51.132;13.588;2023-04-16T05:23:01;33.3;30.0;
56360;PMS7003;42611;51.132;13.588;2023-04-16T05:28:01;34.9;31.2;
56360;PMS7003;42611;51.132;13.588;2023-04-16T05:38:01;34.1;30.9;
56360;PMS7003;42611;51.132;13.588;2023-04-16T05:43:01;33.0;30.4;
56360;PMS7003;42611;51.132;13.588;2023-04-16T05:48:01;34.9;31.6;
56360;PMS7003;42611;51.132;13.588;2023-04-16T05:53:04;35.8;32.1;
56360;PMS7003;42611;51.132;13.588;2023-04-16T05:58:01;35.6;32.7;
56360;PMS7003;42611;51.132;13.588;2023-04-16T06:03:02;37.1;33.0;
56360;PMS7003;42611;51.132;13.588;2023-04-16T06:08:01;38.1;33.4;
56360;PMS7003;42611;51.132;13.588;2023-04-16T06:13:01;37.0;32.7;
56360;PMS7003;42611;51.132;13.588;2023-04-16T06:18:01;36.6;32.3;
56360;PMS7003;42611;51.132;13.588;2023-04-16T06:23:02;38.4;32.7;
56360;PMS7003;42611;51.132;13.588;2023-04-16T06:28:01;36.8;32.1;
56360;PMS7003;42611;51.132;13.588;2023-04-16T06:33:01;36.6;32.1;
56360;PMS7003;42611;51.132;13.588;2023-04-16T06:38:01;35.9;31.6;
56360;PMS7003;42611;51.132;13.588;2023-04-16T06:43:01;35.2;31.2;
56360;PMS7003;42611;51.132;13.588;2023-04-16T06:48:01;34.7;31.3;
56360;PMS7003;42611;51.132;13.588;2023-04-16T06:53:01;36.0;31.9;
56360;PMS7003;42611;51.132;13.588;2023-04-16T06:58:01;37.2;32.1;
56360;PMS7003;42611;51.132;13.588;2023-04-16T07:03:04;38.1;32.8;
56360;PMS7003;42611;51.132;13.588;2023-04-16T07:08:01;37.7;32.5;
56360;PMS7003;42611;51.132;13.588;2023-04-16T07:13:01;36.8;32.0;
56360;PMS7003;42611;51.132;13.588;2023-04-16T07:18:01;37.6;32.6;
56360;PMS7003;42611;51.132;13.588;2023-04-16T07:23:02;35.3;31.8;
56360;PMS7003;42611;51.132;13.588;2023-04-16T07:28:01;35.0;31.7;
56360;PMS7003;42611;51.132;13.588;2023-04-16T07:33:02;37.3;32.6;
56360;PMS7003;42611;51.132;13.588;2023-04-16T07:43:01;37.8;32.5;
56360;PMS7003;42611;51.132;13.588;2023-04-16T07:48:02;40.1;33.2;
56360;PMS7003;42611;51.132;13.588;2023-04-16T07:53:01;40.6;33.3;
56360;PMS7003;42611;51.132;13.588;2023-04-16T07:58:01;37.8;32.0;
56360;PMS7003;42611;51.132;13.588;2023-04-16T08:03:03;37.4;31.6;
56360;PMS7003;42611;51.132;13.588;2023-04-16T08:08:01;37.1;32.0;
56360;PMS7003;42611;51.132;13.588;2023-04-16T08:13:01;36.3;32.2;
56360;PMS7003;42611;51.132;13.588;2023-04-16T08:18:02;36.4;32.2;
56360;PMS7003;42611;51.132;13.588;2023-04-16T08:23:02;38.8;33.6;
56360;PMS7003;42611;51.132;13.588;2023-04-16T08:28:01;39.6;34.1;
56360;PMS7003;42611;51.132;13.588;2023-04-16T08:33:01;39.2;34.0;
56360;PMS7003;42611;51.132;13.588;2023-04-16T08:38:03;40.3;34.4;
56360;PMS7003;42611;51.132;13.588;2023-04-16T08:43:01;41.5;35.0;
56360;PMS7003;42611;51.132;13.588;2023-04-16T08:48:01;41.8;35.2;
56360;PMS7003;42611;51.132;13.588;2023-04-16T08:53:02;42.9;35.8;
56360;PMS7003;42611;51.132;13.588;2023-04-16T08:59:01;43.1;35.8;
56360;PMS7003;42611;51.132;13.588;2023-04-16T09:04:02;43.6;36.1;
56360;PMS7003;42611;51.132;13.588;2023-04-16T09:09:03;42.6;35.0;
56360;PMS7003;42611;51.132;13.588;2023-04-16T09:14:02;41.7;34.0;
56360;PMS7003;42611;51.132;13.588;2023-04-16T09:19:02;41.3;33.5;
56360;PMS7003;42611;51.132;13.588;2023-04-16T09:24:02;40.0;33.1;
56360;PMS7003;42611;51.132;13.588;2023-04-16T09:29:01;37.0;31.6;
56360;PMS7003;42611;51.132;13.588;2023-04-16T09:34:04;36.6;31.8;
56360;PMS7003;42611;51.132;13.588;2023-04-16T09:39:01;32.3;28.9;
56360;PMS7003;42611;51.132;13.588;2023-04-16T09:44:01;26.1;24.2;
56360;PMS7003;42611;51.132;13.588;2023-04-16T09:49:04;23.2;21.8;
56360;PMS7003;42611;51.132;13.588;2023-04-16T09:54:03;21.8;20.1;
56360;PMS7003;42611;51.132;13.588;2023-04-16T09:59:01;17.2;16.6;
56360;PMS7003;42611;51.132;13.588;2023-04-16T10:04:06;16.0;15.4;
56360;PMS7003;42611;51.132;13.588;2023-04-16T10:09:06;17.1;16.3;
56360;PMS7003;42611;51.132;13.588;2023-04-16T10:14:02;16.9;15.9;
56360;PMS7003;42611;51.132;13.588;2023-04-16T10:19:01;16.4;15.7;
56360;PMS7003;42611;51.132;13.588;2023-04-16T10:24:01;17.5;16.9;
56360;PMS7003;42611;51.132;13.588;2023-04-16T10:29:01;20.0;19.1;
56360;PMS7003;42611;51.132;13.588;2023-04-16T10:34:01;19.2;18.5;
56360;PMS7003;42611;51.132;13.588;2023-04-16T10:39:01;17.4;16.7;
56360;PMS7003;42611;51.132;13.588;2023-04-16T10:44:03;16.8;16.2;
56360;PMS7003;42611;51.132;13.588;2023-04-16T10:49:02;15.5;14.7;
56360;PMS7003;42611;51.132;13.588;2023-04-16T10:54:02;14.4;13.9;
56360;PMS7003;42611;51.132;13.588;2023-04-16T10:59:05;14.6;14.0;
56360;PMS7003;42611;51.132;13.588;2023-04-16T11:04:25;15.2;15.0;
56360;PMS7003;42611;51.132;13.588;2023-04-16T11:09:02;15.8;15.3;
56360;PMS7003;42611;51.132;13.588;2023-04-16T11:14:01;16.7;16.3;
56360;PMS7003;42611;51.132;13.588;2023-04-16T11:19:01;16.9;16.4;
56360;PMS7003;42611;51.132;13.588;2023-04-16T11:24:01;19.3;18.4;
56360;PMS7003;42611;51.132;13.588;2023-04-16T11:29:01;20.9;20.0;
56360;PMS7003;42611;51.132;13.588;2023-04-16T11:34:01;23.0;21.9;
56360;PMS7003;42611;51.132;13.588;2023-04-16T11:39:01;23.9;22.9;
56360;PMS7003;42611;51.132;13.588;2023-04-16T11:44:15;25.1;24.2;
56360;PMS7003;42611;51.132;13.588;2023-04-16T11:49:01;24.3;23.5;
56360;PMS7003;42611;51.132;13.588;2023-04-16T11:54:01;24.1;23.4;
56360;PMS7003;42611;51.132;13.588;2023-04-16T11:59:05;21.9;21.3;
56360;PMS7003;42611;51.132;13.588;2023-04-16T12:04:03;21.1;20.5;
56360;PMS7003;42611;51.132;13.588;2023-04-16T12:09:24;20.1;19.2;
56360;PMS7003;42611;51.132;13.588;2023-04-16T12:14:09;19.7;19.0;
56360;PMS7003;42611;51.132;13.588;2023-04-16T12:19:02;18.6;18.1;
56360;PMS7003;42611;51.132;13.588;2023-04-16T12:24:01;19.0;18.5;
56360;PMS7003;42611;51.132;13.588;2023-04-16T12:29:17;19.1;18.0;
56360;PMS7003;42611;51.132;13.588;2023-04-16T12:34:02;18.4;17.6;
56360;PMS7003;42611;51.132;13.588;2023-04-16T12:39:02;17.7;16.9;
56360;PMS7003;42611;51.132;13.588;2023-04-16T12:44:03;18.2;17.2;
56360;PMS7003;42611;51.132;13.588;2023-04-16T12:49:02;17.0;16.0;
56360;PMS7003;42611;51.132;13.588;2023-04-16T12:54:03;16.2;15.8;
56360;PMS7003;42611;51.132;13.588;2023-04-16T12:59:01;16.9;16.0;
56360;PMS7003;42611;51.132;13.588;2023-04-16T13:04:02;17.4;16.2;
56360;PMS7003;42611;51.132;13.588;2023-04-16T13:09:01;16.9;15.6;
56360;PMS7003;42611;51.132;13.588;2023-04-16T13:15:02;17.5;16.4;
56360;PMS7003;42611;51.132;13.588;2023-04-16T13:20:01;17.6;16.4;
56360;PMS7003;42611;51.132;13.588;2023-04-16T13:25:01;17.2;16.1;
56360;PMS7003;42611;51.132;13.588;2023-04-16T13:30:02;16.8;16.0;
56360;PMS7003;42611;51.132;13.588;2023-04-16T13:35:01;16.5;15.8;
56360;PMS7003;42611;51.132;13.588;2023-04-16T13:40:02;15.8;14.9;
56360;PMS7003;42611;51.132;13.588;2023-04-16T13:45:02;14.7;14.0;
56360;PMS7003;42611;51.132;13.588;2023-04-16T13:50:01;13.3;12.6;
56360;PMS7003;42611;51.132;13.588;2023-04-16T13:55:02;12.1;11.2;
56360;PMS7003;42611;51.132;13.588;2023-04-16T14:00:02;11.0;10.1;
56360;PMS7003;42611;51.132;13.588;2023-04-16T14:05:01;10.2;9.3;
56360;PMS7003;42611;51.132;13.588;2023-04-16T14:10:01;10.6;9.4;
56360;PMS7003;42611;51.132;13.588;2023-04-16T14:15:03;10.4;9.5;
56360;PMS7003;42611;51.132;13.588;2023-04-16T14:20:02;9.9;9.2;
56360;PMS7003;42611;51.132;13.588;2023-04-16T14:25:02;9.2;8.6;
56360;PMS7003;42611;51.132;13.588;2023-04-16T14:30:02;9.2;8.6;
56360;PMS7003;42611;51.132;13.588;2023-04-16T14:35:01;9.3;9.0;
56360;PMS7003;42611;51.132;13.588;2023-04-16T14:40:02;9.4;9.0;
56360;PMS7003;42611;51.132;13.588;2023-04-16T14:45:02;9.4;9.0;
56360;PMS7003;42611;51.132;13.588;2023-04-16T14:50:01;9.7;9.2;
56360;PMS7003;42611;51.132;13.588;2023-04-16T14:55:07;9.2;8.6;
56360;PMS7003;42611;51.132;13.588;2023-04-16T15:00:02;7.8;7.4;
56360;PMS7003;42611;51.132;13.588;2023-04-16T15:05:01;7.6;6.8;
56360;PMS7003;42611;51.132;13.588;2023-04-16T15:10:01;7.4;6.6;
56360;PMS7003;42611;51.132;13.588;2023-04-16T15:15:02;7.4;6.5;
56360;PMS7003;42611;51.132;13.588;2023-04-16T15:20:01;7.3;6.6;
56360;PMS7003;42611;51.132;13.588;2023-04-16T15:25:01;7.5;6.6;
56360;PMS7003;42611;51.132;13.588;2023-04-16T15:30:02;7.1;6.6;
56360;PMS7003;42611;51.132;13.588;2023-04-16T15:35:01;7.0;6.5;
56360;PMS7003;42611;51.132;13.588;2023-04-16T15:40:02;7.6;6.9;
56360;PMS7003;42611;51.132;13.588;2023-04-16T15:45:02;7.9;7.3;
56360;PMS7003;42611;51.132;13.588;2023-04-16T15:50:02;8.9;8.2;
56360;PMS7003;42611;51.132;13.588;2023-04-16T15:55:04;9.2;8.4;
56360;PMS7003;42611;51.132;13.588;2023-04-16T16:00:13;10.0;9.2;
56360;PMS7003;42611;51.132;13.588;2023-04-16T16:05:01;10.6;10.2;
56360;PMS7003;42611;51.132;13.588;2023-04-16T16:10:02;10.8;10.4;
56360;PMS7003;42611;51.132;13.588;2023-04-16T16:15:02;10.3;10.2;
56360;PMS7003;42611;51.132;13.588;2023-04-16T16:20:02;10.4;10.4;
56360;PMS7003;42611;51.132;13.588;2023-04-16T16:30:02;9.5;9.3;
56360;PMS7003;42611;51.132;13.588;2023-04-16T16:35:01;9.7;9.5;
56360;PMS7003;42611;51.132;13.588;2023-04-16T16:41:02;10.3;10.1;
56360;PMS7003;42611;51.132;13.588;2023-04-16T16:46:01;12.7;11.7;
56360;PMS7003;42611;51.132;13.588;2023-04-16T16:51:01;14.0;13.1;
56360;PMS7003;42611;51.132;13.588;2023-04-16T16:56:01;15.6;14.5;
56360;PMS7003;42611;51.132;13.588;2023-04-16T17:01:01;18.7;16.9;
56360;PMS7003;42611;51.132;13.588;2023-04-16T17:06:02;22.4;19.4;
56360;PMS7003;42611;51.132;13.588;2023-04-16T17:11:02;23.4;21.0;
56360;PMS7003;42611;51.132;13.588;2023-04-16T17:16:01;26.1;23.2;
56360;PMS7003;42611;51.132;13.588;2023-04-16T17:21:01;29.6;25.6;
56360;PMS7003;42611;51.132;13.588;2023-04-16T17:26:01;29.8;26.4;
56360;PMS7003;42611;51.132;13.588;2023-04-16T17:31:01;30.6;27.4;
56360;PMS7003;42611;51.132;13.588;2023-04-16T17:36:01;33.1;28.9;
56360;PMS7003;42611;51.132;13.588;2023-04-16T17:41:01;35.4;30.1;
56360;PMS7003;42611;51.132;13.588;2023-04-16T17:46:01;35.7;30.5;
56360;PMS7003;42611;51.132;13.588;2023-04-16T17:51:10;36.5;31.1;
56360;PMS7003;42611;51.132;13.588;2023-04-16T17:56:01;36.0;30.8;
56360;PMS7003;42611;51.132;13.588;2023-04-16T18:01:02;35.9;30.8;
56360;PMS7003;42611;51.132;13.588;2023-04-16T18:06:01;32.9;28.7;
56360;PMS7003;42611;51.132;13.588;2023-04-16T18:11:05;29.9;26.4;
56360;PMS7003;42611;51.132;13.588;2023-04-16T18:16:01;27.7;24.4;
56360;PMS7003;42611;51.132;13.588;2023-04-16T18:21:01;24.6;21.6;
56360;PMS7003;42611;51.132;13.588;2023-04-16T18:26:01;21.1;18.4;
56360;PMS7003;42611;51.132;13.588;2023-04-16T18:31:01;20.0;17.8;
56360;PMS7003;42611;51.132;13.588;2023-04-16T18:36:01;19.3;17.5;
56360;PMS7003;42611;51.132;13.588;2023-04-16T18:41:01;18.6;16.9;
56360;PMS7003;42611;51.132;13.588;2023-04-16T18:46:02;18.8;17.3;
56360;PMS7003;42611;51.132;13.588;2023-04-16T18:51:01;18.2;17.4;
56360;PMS7003;42611;51.132;13.588;2023-04-16T18:56:01;18.4;17.6;
56360;PMS7003;42611;51.132;13.588;2023-04-16T19:01:01;19.4;18.4;
56360;PMS7003;42611;51.132;13.588;2023-04-16T19:06:01;21.3;20.4;
56360;PMS7003;42611;51.132;13.588;2023-04-16T19:11:01;21.9;20.5;
56360;PMS7003;42611;51.132;13.588;2023-04-16T19:16:01;22.6;20.8;
56360;PMS7003;42611;51.132;13.588;2023-04-16T19:21:01;21.7;19.7;
56360;PMS7003;42611;51.132;13.588;2023-04-16T19:26:01;20.6;18.4;
56360;PMS7003;42611;51.132;13.588;2023-04-16T19:31:01;17.9;15.8;
56360;PMS7003;42611;51.132;13.588;2023-04-16T19:36:01;15.8;14.6;
56360;PMS7003;42611;51.132;13.588;2023-04-16T19:41:01;13.7;12.6;
56360;PMS7003;42611;51.132;13.588;2023-04-16T19:46:01;12.5;11.8;
56360;PMS7003;42611;51.132;13.588;2023-04-16T19:52:01;11.8;11.4;
56360;PMS7003;42611;51.132;13.588;2023-04-16T19:57:01;10.4;10.0;
56360;PMS7003;42611;51.132;13.588;2023-04-16T20:02:01;11.0;10.3;
56360;PMS7003;42611;51.132;13.588;2023-04-16T20:07:02;12.2;11.2;
56360;PMS7003;42611;51.132;13.588;2023-04-16T20:12:01;13.2;12.2;
56360;PMS7003;42611;51.132;13.588;2023-04-16T20:17:01;13.1;12.1;
56360;PMS7003;42611;51.132;13.588;2023-04-16T20:22:02;14.0;13.0;
56360;PMS7003;42611;51.132;13.588;2023-04-16T20:27:01;14.1;13.1;
56360;PMS7003;42611;51.132;13.588;2023-04-16T20:32:01;13.3;12.7;
56360;PMS7003;42611;51.132;13.588;2023-04-16T20:37:01;13.5;12.4;
56360;PMS7003;42611;51.132;13.588;2023-04-16T20:42:01;13.8;12.3;
56360;PMS7003;42611;51.132;13.588;2023-04-16T20:52:01;14.0;12.7;
56360;PMS7003;42611;51.132;13.588;2023-04-16T20:57:05;15.0;13.9;
56360;PMS7003;42611;51.132;13.588;2023-04-16T21:02:01;14.8;13.6;
56360;PMS7003;42611;51.132;13.588;2023-04-16T21:12:02;15.6;15.0;
56360;PMS7003;42611;51.132;13.588;2023-04-16T21:17:01;17.1;16.0;
56360;PMS7003;42611;51.132;13.588;2023-04-16T21:22:01;16.7;15.4;
56360;PMS7003;42611;51.132;13.588;2023-04-16T21:27:01;16.4;15.7;
56360;PMS7003;42611;51.132;13.588;2023-04-16T21:32:01;17.6;16.9;
56360;PMS7003;42611;51.132;13.588;2023-04-16T21:42:01;16.4;16.2;
56360;PMS7003;42611;51.132;13.588;2023-04-16T21:47:01;17.3;17.3;
56360;PMS7003;42611;51.132;13.588;2023-04-16T21:52:01;18.4;18.4;
56360;PMS7003;42611;51.132;13.588;2023-04-16T21:57:01;20.0;19.3;
56360;PMS7003;42611;51.132;13.588;2023-04-16T22:02:01;21.5;20.5;
56360;PMS7003;42611;51.132;13.588;2023-04-16T22:07:01;24.0;22.2;
56360;PMS7003;42611;51.132;13.588;2023-04-16T22:12:01;24.3;22.3;
56360;PMS7003;42611;51.132;13.588;2023-04-16T22:17:01;25.2;23.0;
56360;PMS7003;42611;51.132;13.588;2023-04-16T22:22:01;24.2;22.7;
56360;PMS7003;42611;51.132;13.588;2023-04-16T22:27:01;25.1;23.6;
56360;PMS7003;42611;51.132;13.588;2023-04-16T22:32:01;24.3;23.0;
56360;PMS7003;42611;51.132;13.588;2023-04-16T22:37:01;24.9;23.6;
56360;PMS7003;42611;51.132;13.588;2023-04-16T22:42:01;25.0;23.7;
56360;PMS7003;42611;51.132;13.588;2023-04-16T22:47:01;23.6;22.1;
56360;PMS7003;42611;51.132;13.588;2023-04-16T22:52:02;23.1;21.2;
56360;PMS7003;42611;51.132;13.588;2023-04-16T22:57:01;22.2;20.3;
56360;PMS7003;42611;51.132;13.588;2023-04-16T23:02:01;20.4;18.8;
56360;PMS7003;42611;51.132;13.588;2023-04-16T23:07:01;19.7;18.1;
56360;PMS7003;42611;51.132;13.588;2023-04-16T23:12:01;21.1;19.0;
56360;PMS7003;42611;51.132;13.588;2023-04-16T23:17:02;21.4;19.7;
56360;PMS7003;42611;51.132;13.588;2023-04-16T23:22:06;22.9;21.2;
56360;PMS7003;42611;51.132;13.588;2023-04-16T23:27:07;24.4;22.1;
56360;PMS7003;42611;51.132;13.588;2023-04-16T23:37:06;24.8;22.6;
56360;PMS7003;42611;51.132;13.588;2023-04-16T23:42:01;26.0;23.2;
56360;PMS7003;42611;51.132;13.588;2023-04-16T23:47:03;25.0;22.5;
56360;PMS7003;42611;51.132;13.588;2023-04-16T23:52:07;25.6;23.2;
56360;PMS7003;42611;51.132;13.588;2023-04-16T23:57:01;26.0;23.7;
